Time;durP1;ratioP1;P1;durP2;ratioP2;P2;SDS_P1;SDS_P2;PMS_P1;PMS_P2;Temp;Humidity;BMP_temperature;BMP_pressure;BME280_temperature;BME280_humidity;BME280_pressure;Samples;Min_cycle;Max_cycle;Signal;HPM_P1;HPM_P2
2022/02/10 00:03:46;;;;;;;29.13;14.87;;;5.70;95.00;;;;;;5033768;28;20202;-90
2022/02/10 00:13:26;;;;;;;34.67;18.43;;;5.70;95.00;;;;;;5033426;28;20170;-91
2022/02/10 00:14:25;;;;;;;33.00;17.13;;;5.70;95.10;;;;;;5033451;28;20198;-90
2022/02/10 00:17:15;;;;;;;26.43;15.57;;;5.80;95.10;;;;;;5015589;28;20240;-91
2022/02/10 00:19:50;;;;;;;32.53;16.73;;;5.90;95.10;;;;;;5015580;28;20164;-90
2022/02/10 00:22:31;;;;;;;31.80;16.10;;;5.80;95.00;;;;;;5015421;28;20232;-90
2022/02/10 00:25:43;;;;;;;25.63;15.60;;;5.90;95.00;;;;;;5033141;28;20184;-91
2022/02/10 00:36:10;;;;;;;32.03;17.63;;;5.80;94.90;;;;;;5037244;28;20246;-90
2022/02/10 00:38:41;;;;;;;30.37;17.40;;;5.90;94.90;;;;;;5019634;28;20568;-91
2022/02/10 00:41:06;;;;;;;38.40;18.50;;;5.90;94.90;;;;;;5019973;28;20224;-91
2022/02/10 00:43:32;;;;;;;33.17;18.57;;;5.90;94.90;;;;;;5019060;28;20299;-91
2022/02/10 00:45:57;;;;;;;38.10;19.57;;;5.90;94.90;;;;;;5019341;28;20270;-90
2022/02/10 00:48:23;;;;;;;27.97;18.77;;;5.90;95.00;;;;;;5037137;28;20180;-90
2022/02/10 00:50:50;;;;;;;34.73;18.93;;;5.90;94.90;;;;;;5018793;28;20239;-90
2022/02/10 00:53:29;;;;;;;37.90;19.50;;;5.90;95.00;;;;;;5036757;28;20182;-90
2022/02/10 00:55:55;;;;;;;31.70;20.20;;;6.00;95.00;;;;;;5019111;28;20161;-90
2022/02/10 00:58:24;;;;;;;41.33;21.47;;;6.00;95.00;;;;;;5019630;28;20309;-90
2022/02/10 01:30:56;;;;;;;44.07;22.53;;;6.10;95.10;;;;;;5036074;28;20180;-89
2022/02/10 01:33:22;;;;;;;34.53;21.90;;;6.10;95.20;;;;;;5036376;28;20210;-89
2022/02/10 01:35:47;;;;;;;47.77;21.90;;;6.10;95.20;;;;;;5018077;28;20266;-89
2022/02/10 01:38:13;;;;;;;36.03;20.73;;;6.20;95.10;;;;;;5018012;28;20318;-89
2022/02/10 01:57:45;;;;;;;49.83;21.83;;;6.20;95.10;;;;;;5036531;28;20199;-90
2022/02/10 02:05:37;;;;;;;43.07;21.57;;;6.20;94.80;;;;;;5035540;28;20167;-89
2022/02/10 02:08:02;;;;;;;37.17;20.20;;;6.20;94.80;;;;;;5035516;28;20153;-89
2022/02/10 02:10:28;;;;;;;37.33;18.90;;;6.20;94.80;;;;;;5017401;28;20272;-89
2022/02/10 02:12:53;;;;;;;40.67;20.57;;;6.20;94.80;;;;;;5017532;28;20231;-90
2022/02/10 02:15:19;;;;;;;35.53;19.30;;;6.30;94.80;;;;;;5017539;28;20234;-90
2022/02/10 02:17:44;;;;;;;42.33;20.73;;;6.30;94.80;;;;;;5035276;28;20185;-90
2022/02/10 02:20:11;;;;;;;46.27;23.43;;;6.30;94.80;;;;;;5017537;28;20186;-90
2022/02/10 02:22:36;;;;;;;35.90;20.60;;;6.30;94.70;;;;;;5017304;28;20271;-90
2022/02/10 02:25:02;;;;;;;40.53;20.97;;;6.30;94.60;;;;;;5017156;28;20668;-90
2022/02/10 02:27:44;;;;;;;44.23;22.57;;;6.30;94.70;;;;;;5034817;28;20177;-89
2022/02/10 02:30:46;;;;;;;32.30;19.23;;;6.30;94.60;;;;;;5017309;28;20222;-90
2022/02/10 03:05:31;;;;;;;31.30;20.23;;;6.10;93.90;;;;;;5034457;28;20704;-90
2022/02/10 03:07:58;;;;;;;45.33;23.07;;;6.10;93.90;;;;;;5016744;28;20165;-90
2022/02/10 03:10:41;;;;;;;41.57;24.07;;;6.10;94.00;;;;;;5016377;28;20175;-90
2022/02/10 03:13:10;;;;;;;37.40;20.00;;;6.00;94.10;;;;;;5034059;28;20159;-90
2022/02/10 03:18:47;;;;;;;49.37;25.63;;;6.10;94.40;;;;;;4992841;28;20201;-90
2022/02/10 04:10:18;;;;;;;30.40;18.17;;;5.80;95.30;;;;;;5040710;28;20166;-89
2022/02/10 04:28:27;;;;;;;25.53;13.63;;;5.60;95.50;;;;;;5040336;28;20174;-90
2022/02/10 04:40:12;;;;;;;26.23;13.13;;;5.60;95.70;;;;;;5039963;28;20640;-90
2022/02/10 05:16:48;;;;;;;29.30;13.93;;;5.60;95.80;;;;;;5020238;28;20175;-91
2022/02/10 05:19:30;;;;;;;30.10;14.40;;;5.60;95.80;;;;;;5000557;28;20188;-91
2022/02/10 05:37:42;;;;;;;31.47;14.23;;;5.60;95.90;;;;;;5016782;28;20204;-91
2022/02/10 05:40:14;;;;;;;28.17;13.13;;;5.60;95.90;;;;;;4998825;28;20179;-91
2022/02/10 05:43:13;;;;;;;21.00;12.10;;;5.70;95.90;;;;;;4999540;28;20201;-91
2022/02/10 05:48:16;;;;;;;23.73;11.73;;;5.70;95.90;;;;;;5016350;28;20331;-92
2022/02/10 05:55:43;;;;;;;20.13;11.20;;;5.70;95.90;;;;;;5016343;28;20161;-92
2022/02/10 06:46:58;;;;;;;24.50;14.53;;;5.70;95.90;;;;;;5015277;28;20246;-91
2022/02/10 06:52:42;;;;;;;26.90;13.70;;;5.60;95.90;;;;;;5015222;28;20205;-91
2022/02/10 06:55:23;;;;;;;25.77;14.60;;;5.60;95.90;;;;;;4997516;28;20627;-90
2022/02/10 07:03:41;;;;;;;19.80;13.37;;;5.70;95.90;;;;;;5016346;28;20696;-91
2022/02/10 07:09:00;;;;;;;19.70;13.97;;;5.60;95.90;;;;;;5016612;28;20243;-90
2022/02/10 07:17:25;;;;;;;27.07;17.13;;;5.70;95.90;;;;;;5015856;28;20175;-92
2022/02/10 07:53:07;;;;;;;16.53;14.63;;;5.80;95.90;;;;;;5015066;28;20216;-92
2022/02/10 07:55:47;;;;;;;18.43;14.73;;;5.70;95.90;;;;;;5014807;28;20230;-91
2022/02/10 08:50:15;;;;;;;30.33;17.47;;;6.00;95.50;;;;;;5021849;28;20226;-92
2022/02/10 08:56:16;;;;;;;27.00;16.73;;;6.00;95.40;;;;;;5022437;28;20207;-93
2022/02/10 09:03:40;;;;;;;22.73;16.20;;;6.00;95.30;;;;;;5021227;28;20258;-92
2022/02/10 09:12:13;;;;;;;28.43;18.73;;;6.20;95.30;;;;;;5022290;28;20176;-92
2022/02/10 09:24:01;;;;;;;32.23;19.57;;;6.20;95.30;;;;;;5014277;28;20213;-93
2022/02/10 09:58:29;;;;;;;29.90;17.97;;;6.40;94.70;;;;;;5016510;28;20223;-90
2022/02/10 10:01:17;;;;;;;28.97;17.87;;;6.40;94.70;;;;;;5015786;28;20300;-90
2022/02/10 10:03:53;;;;;;;30.53;18.77;;;6.50;94.70;;;;;;4998196;28;20221;-90
2022/02/10 10:06:29;;;;;;;27.20;19.10;;;6.50;94.60;;;;;;4997914;28;20229;-91
2022/02/10 10:09:31;;;;;;;31.57;18.87;;;6.50;94.50;;;;;;5019827;28;20168;-93
2022/02/10 10:14:43;;;;;;;25.73;19.30;;;6.50;94.30;;;;;;5016568;28;20284;-90
2022/02/10 10:17:22;;;;;;;33.20;19.50;;;6.50;94.30;;;;;;4999433;28;20223;-90
2022/02/10 10:22:48;;;;;;;35.03;20.87;;;6.80;94.30;;;;;;5016125;28;20311;-90
2022/02/10 10:47:18;;;;;;;26.67;17.57;;;6.80;93.30;;;;;;5015055;28;20192;-88
2022/02/10 10:49:29;;;;;;;26.93;16.80;;;6.90;93.40;;;;;;5015695;28;20181;-91
2022/02/10 10:51:59;;;;;;;27.47;16.33;;;6.90;93.10;;;;;;5017351;28;20184;-92
2022/02/10 10:54:46;;;;;;;25.07;16.83;;;7.00;93.10;;;;;;5000527;28;20193;-91
2022/02/10 11:00:10;;;;;;;28.00;16.70;;;7.10;92.90;;;;;;5015021;28;20264;-89
2022/02/10 11:39:31;;;;;;;17.83;8.80;;;7.40;89.80;;;;;;5015062;28;20565;-90
2022/02/10 13:29:04;;;;;;;21.87;3.83;;;7.60;85.50;;;;;;5016900;28;20180;-87
2022/02/10 13:48:04;;;;;;;17.77;3.83;;;7.80;84.50;;;;;;5016716;28;20248;-87
2022/02/10 14:09:29;;;;;;;17.43;3.60;;;7.30;84.70;;;;;;5036364;28;20242;-91
2022/02/10 14:14:39;;;;;;;10.47;3.23;;;7.20;84.00;;;;;;5035913;28;20199;-92
2022/02/10 14:17:10;;;;;;;14.13;3.40;;;7.20;84.40;;;;;;5018808;28;20630;-92
2022/02/10 14:19:46;;;;;;;11.80;3.10;;;7.20;84.40;;;;;;5018442;28;20168;-92
2022/02/10 14:27:28;;;;;;;13.83;3.10;;;7.00;82.70;;;;;;5036159;28;20705;-92
2022/02/10 14:29:54;;;;;;;12.03;3.23;;;6.90;83.10;;;;;;5017567;28;20204;-92
2022/02/10 14:32:24;;;;;;;9.40;2.70;;;6.70;83.70;;;;;;5018212;28;20184;-92
2022/02/10 14:34:53;;;;;;;15.40;3.30;;;6.70;84.20;;;;;;5017737;28;20219;-92
2022/02/10 14:40:01;;;;;;;11.77;4.93;;;6.60;85.10;;;;;;5035671;28;20157;-91
2022/02/10 15:14:34;;;;;;;9.80;3.40;;;6.00;88.50;;;;;;5038260;28;20191;-92
2022/02/10 15:50:41;;;;;;;16.67;4.30;;;5.80;88.20;;;;;;5033992;28;20268;-91
2022/02/10 15:55:50;;;;;;;17.33;5.13;;;5.80;86.70;;;;;;5034385;28;20245;-91
2022/02/10 16:17:07;;;;;;;16.50;3.13;;;5.60;85.10;;;;;;5035419;28;20179;-92
2022/02/10 16:19:34;;;;;;;19.90;5.50;;;5.60;84.90;;;;;;5016736;28;20603;-92
2022/02/10 16:27:35;;;;;;;23.08;4.65;;;5.50;85.40;;;;;;5033084;28;20425;-92
2022/02/10 16:30:13;;;;;;;24.37;4.63;;;5.50;85.70;;;;;;5034210;28;20175;-92
2022/02/10 16:32:40;;;;;;;18.57;4.93;;;5.50;85.80;;;;;;5015721;28;20167;-92
2022/02/10 16:35:08;;;;;;;14.73;4.00;;;5.40;85.90;;;;;;5033338;28;20193;-92
2022/02/10 16:37:35;;;;;;;21.97;4.13;;;5.40;85.90;;;;;;5016212;28;20570;-91
2022/02/10 16:40:01;;;;;;;19.47;4.00;;;5.40;85.90;;;;;;5016050;28;20183;-92
2022/02/10 16:42:26;;;;;;;13.77;4.17;;;5.40;86.20;;;;;;5016149;28;20441;-92
2022/02/10 16:44:53;;;;;;;14.93;4.37;;;5.30;86.00;;;;;;5033271;28;20295;-91
2022/02/10 16:47:19;;;;;;;17.23;4.23;;;5.30;86.20;;;;;;5016384;28;20546;-91
2022/02/10 16:49:48;;;;;;;15.33;3.80;;;5.30;86.30;;;;;;5034136;28;20178;-92
2022/02/10 16:52:28;;;;;;;19.10;4.53;;;5.20;86.30;;;;;;5015862;28;20322;-91
2022/02/10 16:55:07;;;;;;;16.10;4.27;;;5.30;86.70;;;;;;5016192;28;20611;-92
2022/02/10 16:57:48;;;;;;;16.60;4.03;;;5.20;86.50;;;;;;5015690;28;20182;-91
2022/02/10 17:00:46;;;;;;;19.83;4.70;;;5.20;86.60;;;;;;5016475;28;20171;-92
2022/02/10 17:14:08;;;;;;;19.73;5.53;;;5.10;87.10;;;;;;5034157;28;20166;-91
2022/02/10 17:14:14;;;;;;;17.63;4.27;;;5.00;87.20;;;;;;5033337;28;20167;-91
2022/02/10 17:32:27;;;;;;;16.47;4.23;;;4.90;87.10;;;;;;5037372;28;20165;-93
2022/02/10 17:35:17;;;;;;;23.20;4.80;;;4.80;87.20;;;;;;5021972;28;20205;-93
2022/02/10 17:53:40;;;;;;;19.17;5.27;;;4.80;88.00;;;;;;5036903;28;20248;-92
2022/02/10 17:56:07;;;;;;;12.77;4.00;;;4.80;87.80;;;;;;5036811;28;20202;-92
2022/02/10 17:58:33;;;;;;;18.77;4.17;;;4.80;87.50;;;;;;5019783;28;20171;-92
2022/02/10 18:00:59;;;;;;;17.20;4.40;;;4.80;87.30;;;;;;5018610;28;20163;-92
2022/02/10 18:03:26;;;;;;;18.30;4.00;;;4.80;87.20;;;;;;5019118;28;20175;-92
2022/02/10 18:08:21;;;;;;;12.57;3.60;;;4.80;86.70;;;;;;5036300;28;20170;-92
2022/02/10 18:16:27;;;;;;;14.50;4.57;;;4.70;86.60;;;;;;5035808;28;20196;-92
2022/02/10 18:18:58;;;;;;;15.27;4.13;;;4.70;86.60;;;;;;5035473;28;20162;-92
2022/02/10 18:21:37;;;;;;;9.90;3.90;;;4.60;86.60;;;;;;5021643;28;20217;-92
2022/02/10 18:24:41;;;;;;;17.63;4.38;;;4.50;86.90;;;;;;5029220;28;20453;-92
2022/02/10 18:27:04;;;;;;;15.23;3.70;;;4.50;87.00;;;;;;5035313;28;20175;-91
2022/02/10 18:37:01;;;;;;;15.43;3.33;;;4.40;87.00;;;;;;5036952;28;20209;-92
2022/02/10 18:54:26;;;;;;;10.60;3.17;;;4.50;86.70;;;;;;5035719;28;20216;-92
2022/02/10 19:01:38;;;;;;;11.30;3.40;;;4.20;87.70;;;;;;5035563;28;20283;-92
2022/02/10 19:05:48;;;;;;;8.47;3.87;;;4.20;88.20;;;;;;5035408;28;20231;-92
2022/02/10 19:08:44;;;;;;;10.00;3.83;;;4.10;88.40;;;;;;5035372;28;20149;-92
2022/02/10 19:11:12;;;;;;;9.67;3.33;;;4.10;88.50;;;;;;5017495;28;20197;-92
2022/02/10 19:13:40;;;;;;;16.10;3.80;;;4.20;88.60;;;;;;5017463;28;20271;-92
2022/02/10 19:16:05;;;;;;;10.90;3.67;;;4.20;88.70;;;;;;5035734;28;20193;-92
2022/02/10 19:18:31;;;;;;;15.33;4.10;;;4.10;88.70;;;;;;5018822;28;20180;-92
2022/02/10 19:20:57;;;;;;;9.10;3.77;;;4.10;88.80;;;;;;5018896;28;20185;-92
2022/02/10 19:23:34;;;;;;;12.60;4.60;;;4.20;88.70;;;;;;5024344;28;20531;-92
2022/02/10 19:25:59;;;;;;;12.67;4.37;;;4.20;88.60;;;;;;5017323;28;20588;-92
2022/02/10 19:28:25;;;;;;;13.03;4.23;;;4.20;88.60;;;;;;5016861;28;20176;-91
2022/02/10 19:30:51;;;;;;;12.20;3.80;;;4.20;88.50;;;;;;5033962;28;20186;-92
2022/02/10 19:33:16;;;;;;;14.27;4.33;;;4.20;88.70;;;;;;5033847;28;20204;-91
2022/02/10 19:35:48;;;;;;;17.60;4.83;;;4.10;88.70;;;;;;5033773;28;20200;-92
2022/02/10 19:38:18;;;;;;;14.57;4.63;;;4.10;88.70;;;;;;5015873;28;20174;-92
2022/02/10 19:40:46;;;;;;;12.80;3.97;;;4.10;88.80;;;;;;5016268;28;20635;-91
2022/02/10 19:43:14;;;;;;;17.47;5.37;;;4.10;88.90;;;;;;5033936;28;20173;-92
2022/02/10 19:45:41;;;;;;;13.43;4.40;;;4.10;88.90;;;;;;5033755;28;20217;-92
2022/02/10 19:48:06;;;;;;;19.20;4.23;;;4.20;88.70;;;;;;5016221;28;20179;-92
2022/02/10 19:50:33;;;;;;;11.10;5.77;;;4.10;88.80;;;;;;5016438;28;20188;-91
2022/02/10 19:53:03;;;;;;;15.40;4.70;;;4.10;88.70;;;;;;5016147;28;20665;-92
2022/02/10 19:55:30;;;;;;;15.83;5.00;;;4.10;88.60;;;;;;5016352;28;20223;-91
2022/02/10 19:58:04;;;;;;;13.43;4.60;;;4.20;88.60;;;;;;5033607;28;20244;-91
2022/02/10 20:00:37;;;;;;;15.30;3.73;;;4.10;88.50;;;;;;5016689;28;20636;-92
2022/02/10 20:03:11;;;;;;;16.27;5.03;;;4.10;88.50;;;;;;5015948;28;20227;-92
2022/02/10 20:05:36;;;;;;;9.13;3.97;;;4.10;88.30;;;;;;5015818;28;20217;-92
2022/02/10 20:08:02;;;;;;;15.17;4.57;;;4.20;88.30;;;;;;5016624;28;20230;-92
2022/02/10 20:10:28;;;;;;;13.63;4.33;;;4.20;88.30;;;;;;5016053;28;20180;-92
2022/02/10 20:12:54;;;;;;;13.83;4.30;;;4.20;88.30;;;;;;5015933;28;20183;-92
2022/02/10 20:15:22;;;;;;;13.50;4.40;;;4.10;88.30;;;;;;5015823;28;20201;-92
2022/02/10 20:17:48;;;;;;;16.73;4.57;;;4.20;88.30;;;;;;5016090;28;20184;-91
2022/02/10 20:20:14;;;;;;;12.13;4.17;;;4.20;88.10;;;;;;5016432;28;20235;-92
2022/02/10 20:22:39;;;;;;;11.97;4.30;;;4.30;87.70;;;;;;5016302;28;20181;-91
2022/02/10 20:25:07;;;;;;;10.80;3.97;;;4.30;87.60;;;;;;5033059;28;20201;-91
2022/02/10 20:27:34;;;;;;;22.20;4.30;;;4.20;87.80;;;;;;5033148;28;20175;-91
2022/02/10 20:30:00;;;;;;;19.43;6.07;;;4.20;88.10;;;;;;5015752;28;20692;-91
2022/02/10 20:32:27;;;;;;;16.80;4.40;;;4.20;88.00;;;;;;5015871;28;20204;-91
2022/02/10 20:34:54;;;;;;;16.33;5.10;;;4.20;87.90;;;;;;5016457;28;20197;-91
2022/02/10 20:37:22;;;;;;;17.20;5.13;;;4.10;88.00;;;;;;5015518;28;20180;-91
2022/02/10 20:39:48;;;;;;;17.40;4.10;;;4.20;87.90;;;;;;5016182;28;20181;-91
2022/02/10 20:42:17;;;;;;;17.90;4.50;;;4.20;87.90;;;;;;5016123;28;20186;-91
2022/02/10 20:44:45;;;;;;;15.13;4.20;;;4.20;87.80;;;;;;5015754;28;20225;-92
2022/02/10 20:47:14;;;;;;;17.40;5.03;;;4.10;88.00;;;;;;5016124;28;20169;-92
2022/02/10 20:49:40;;;;;;;18.97;5.00;;;4.10;88.00;;;;;;5033942;28;20165;-92
2022/02/10 20:52:05;;;;;;;18.30;4.33;;;4.10;88.10;;;;;;5019693;28;20197;-92
2022/02/10 20:54:31;;;;;;;19.93;5.70;;;4.10;87.90;;;;;;5019942;28;20201;-91
2022/02/10 20:56:57;;;;;;;24.33;5.13;;;4.00;88.10;;;;;;5019479;28;20185;-91
2022/02/10 20:59:32;;;;;;;20.37;4.57;;;4.00;88.00;;;;;;5019401;28;20173;-91
2022/02/10 21:02:04;;;;;;;26.00;5.37;;;4.10;88.00;;;;;;5020065;28;20187;-91
2022/02/10 21:04:33;;;;;;;19.43;5.27;;;4.00;88.10;;;;;;5019466;28;20211;-91
2022/02/10 21:07:07;;;;;;;17.77;4.60;;;4.00;88.10;;;;;;5019542;28;20678;-92
2022/02/10 21:09:44;;;;;;;20.67;4.70;;;4.00;88.10;;;;;;5019115;28;20165;-91
2022/02/10 21:12:12;;;;;;;21.40;4.90;;;3.90;88.40;;;;;;5020312;28;20621;-91
2022/02/10 21:14:38;;;;;;;27.47;5.10;;;3.90;88.30;;;;;;5037097;28;20251;-92
2022/02/10 21:17:08;;;;;;;13.13;4.27;;;3.90;88.40;;;;;;5019272;28;20263;-91
2022/02/10 21:19:35;;;;;;;24.47;5.53;;;3.90;88.40;;;;;;5019260;28;20551;-91
2022/02/10 21:22:06;;;;;;;10.73;5.00;;;3.90;88.50;;;;;;5019783;28;20177;-91
2022/02/10 21:24:34;;;;;;;14.90;4.40;;;3.90;88.40;;;;;;5018916;28;20200;-91
2022/02/10 21:29:29;;;;;;;16.33;5.10;;;3.90;88.30;;;;;;5036581;28;20165;-92
2022/02/10 21:31:57;;;;;;;19.33;4.57;;;3.90;88.40;;;;;;5018631;28;20169;-92
2022/02/10 21:34:26;;;;;;;18.97;5.80;;;3.80;88.70;;;;;;5018509;28;20547;-92
2022/02/10 21:39:49;;;;;;;19.37;4.90;;;3.90;88.60;;;;;;5036538;28;20157;-92
2022/02/10 21:52:34;;;;;;;14.83;4.53;;;3.80;88.50;;;;;;5037027;28;20176;-90
2022/02/10 21:56:10;;;;;;;16.80;6.27;;;3.80;88.70;;;;;;5035907;28;20193;-91
2022/02/10 22:03:48;;;;;;;14.57;5.30;;;3.80;88.50;;;;;;5038861;28;20161;-88
2022/02/10 22:06:52;;;;;;;14.97;5.00;;;3.80;88.60;;;;;;5020472;28;20197;-90
2022/02/10 22:09:27;;;;;;;15.73;4.43;;;3.80;88.60;;;;;;5036600;28;20734;-89
2022/02/10 22:20:00;;;;;;;18.87;4.77;;;3.80;88.30;;;;;;5036906;28;20223;-89
2022/02/10 22:22:36;;;;;;;19.30;4.30;;;3.80;88.30;;;;;;5018503;28;20176;-90
2022/02/10 22:25:06;;;;;;;18.87;4.57;;;3.80;88.50;;;;;;5018979;28;20665;-91
2022/02/10 22:27:36;;;;;;;19.17;4.80;;;3.80;88.30;;;;;;5019345;28;20162;-88
2022/02/10 22:30:10;;;;;;;7.40;3.37;;;3.90;88.10;;;;;;5019455;28;20172;-88
2022/02/10 22:32:57;;;;;;;10.07;3.77;;;3.80;88.10;;;;;;5018531;28;20195;-89
2022/02/10 22:35:25;;;;;;;17.80;4.73;;;3.80;88.30;;;;;;5018731;28;20172;-89
2022/02/10 22:37:53;;;;;;;20.07;4.63;;;3.80;88.30;;;;;;5018478;28;20181;-89
2022/02/10 22:43:02;;;;;;;14.67;4.03;;;3.80;88.40;;;;;;5036167;28;20554;-89
2022/02/10 22:45:28;;;;;;;19.63;4.47;;;3.80;88.40;;;;;;5018130;28;20291;-88
2022/02/10 22:47:53;;;;;;;12.10;4.77;;;3.80;88.30;;;;;;5017990;28;20181;-88
2022/02/10 22:50:19;;;;;;;14.93;4.17;;;3.80;88.20;;;;;;5018343;28;20268;-88
2022/02/10 22:52:44;;;;;;;9.50;4.27;;;3.80;88.10;;;;;;5017939;28;20196;-89
2022/02/10 22:55:10;;;;;;;19.07;4.70;;;3.80;88.10;;;;;;5018389;28;20183;-89
2022/02/10 22:57:36;;;;;;;12.20;4.40;;;3.80;88.30;;;;;;5017650;28;20239;-91
2022/02/10 23:00:07;;;;;;;13.60;4.90;;;3.80;88.30;;;;;;5017555;28;20274;-90
2022/02/10 23:02:32;;;;;;;17.37;4.53;;;3.80;88.30;;;;;;5017402;28;20211;-91
2022/02/10 23:04:58;;;;;;;16.40;4.47;;;3.80;88.40;;;;;;5017134;28;20244;-90
2022/02/10 23:07:23;;;;;;;16.83;4.43;;;3.80;88.50;;;;;;5017543;28;20173;-91
2022/02/10 23:09:53;;;;;;;19.53;5.50;;;3.80;88.50;;;;;;5017428;28;20196;-91
2022/02/10 23:12:18;;;;;;;22.13;5.27;;;3.80;88.50;;;;;;5017970;28;20180;-91
2022/02/10 23:14:44;;;;;;;17.23;5.27;;;3.70;88.70;;;;;;5017826;28;20685;-91
2022/02/10 23:17:10;;;;;;;17.70;5.40;;;3.70;88.90;;;;;;5019690;28;20257;-92
2022/02/10 23:19:39;;;;;;;24.13;5.37;;;3.70;88.80;;;;;;5018823;28;20211;-91
2022/02/10 23:22:05;;;;;;;21.57;4.37;;;3.70;88.80;;;;;;5018703;28;20192;-91
2022/02/10 23:24:30;;;;;;;19.03;5.63;;;3.70;88.90;;;;;;5018524;28;20208;-91
2022/02/10 23:26:56;;;;;;;24.40;5.23;;;3.70;89.00;;;;;;5018847;28;20208;-91
2022/02/10 23:29:22;;;;;;;19.43;4.70;;;3.70;89.00;;;;;;5018106;28;20192;-91
2022/02/10 23:31:48;;;;;;;20.80;5.00;;;3.70;88.80;;;;;;5017964;28;20180;-91
2022/02/10 23:34:13;;;;;;;16.90;4.57;;;3.70;88.70;;;;;;5035439;28;20560;-91
2022/02/10 23:36:47;;;;;;;15.63;5.57;;;3.70;88.80;;;;;;5018792;28;20204;-91
2022/02/10 23:42:10;;;;;;;18.13;4.80;;;3.60;88.80;;;;;;5035237;28;20164;-91
2022/02/10 23:44:40;;;;;;;13.80;5.57;;;3.60;88.90;;;;;;5017726;28;20650;-90
2022/02/10 23:47:08;;;;;;;22.60;4.93;;;3.40;89.60;;;;;;5017346;28;20179;-91
2022/02/10 23:49:36;;;;;;;20.53;4.83;;;3.40;89.70;;;;;;5016834;28;20203;-91
2022/02/10 23:52:05;;;;;;;13.50;5.03;;;3.40;89.70;;;;;;5017429;28;20167;-91
2022/02/10 23:54:35;;;;;;;20.53;4.97;;;3.40;89.60;;;;;;5017248;28;20188;-91
2022/02/10 23:57:07;;;;;;;14.57;4.50;;;3.40;89.50;;;;;;5017001;28;20185;-91
